createdAt,value
2019-04-10T00:01:38.273Z,9.76
2019-04-10T00:04:07.366Z,9.68
2019-04-10T00:06:37.505Z,9.63
2019-04-10T00:09:08.468Z,9.62
2019-04-10T00:11:37.532Z,9.55
2019-04-10T00:14:06.585Z,9.53
2019-04-10T00:16:36.172Z,9.49
2019-04-10T00:19:06.561Z,9.39
2019-04-10T00:21:35.691Z,9.39
2019-04-10T00:24:06.026Z,9.37
2019-04-10T00:26:35.476Z,9.39
2019-04-10T00:29:05.664Z,9.38
2019-04-10T00:31:35.105Z,9.30
2019-04-10T00:34:05.362Z,9.29
2019-04-10T00:36:35.220Z,9.33
2019-04-10T00:39:06.425Z,9.15
2019-04-10T00:41:36.520Z,9.13
2019-04-10T00:44:05.790Z,9.04
2019-04-10T00:46:34.971Z,9.03
2019-04-10T00:49:05.069Z,8.99
2019-04-10T00:51:35.230Z,8.94
2019-04-10T00:54:05.697Z,8.89
2019-04-10T00:56:35.286Z,8.91
2019-04-10T00:59:06.000Z,8.89
2019-04-10T01:01:36.130Z,8.97
2019-04-10T01:04:06.865Z,9.01
2019-04-10T01:06:36.037Z,9.11
2019-04-10T01:09:08.989Z,9.09
2019-04-10T01:11:39.228Z,9.12
2019-04-10T01:14:09.558Z,9.09
2019-04-10T01:16:39.676Z,9.09
2019-04-10T01:19:09.911Z,9.25
2019-04-10T01:21:39.491Z,9.25
2019-04-10T01:24:09.068Z,9.19
2019-04-10T01:26:39.107Z,9.21
2019-04-10T01:29:09.204Z,9.23
2019-04-10T01:31:39.335Z,9.19
2019-04-10T01:34:09.447Z,9.26
2019-04-10T01:36:39.461Z,9.19
2019-04-10T01:39:10.600Z,9.13
2019-04-10T01:41:39.866Z,9.06
2019-04-10T01:44:08.976Z,9.02
2019-04-10T01:46:38.161Z,9.13
2019-04-10T01:49:07.252Z,9.05
2019-04-10T01:51:37.004Z,9.06
2019-04-10T01:54:06.881Z,9.02
2019-04-10T01:56:36.819Z,8.94
2019-04-10T01:59:06.350Z,8.80
2019-04-10T02:01:42.860Z,8.84
2019-04-10T02:04:11.926Z,8.87
2019-04-10T02:06:41.251Z,8.78
2019-04-10T02:09:10.969Z,8.81
2019-04-10T02:11:40.546Z,8.66
2019-04-10T02:14:09.604Z,8.73
2019-04-10T02:16:39.033Z,8.63
2019-04-10T02:19:08.286Z,8.69
2019-04-10T02:21:38.037Z,8.61
2019-04-10T02:24:07.797Z,8.59
2019-04-10T02:26:37.955Z,8.66
2019-04-10T02:29:07.872Z,8.67
2019-04-10T02:31:38.497Z,8.51
2019-04-10T02:34:09.452Z,8.51
2019-04-10T02:36:39.063Z,8.52
2019-04-10T02:39:21.876Z,8.46
2019-04-10T02:41:39.655Z,8.35
2019-04-10T02:44:10.205Z,8.51
2019-04-10T02:46:41.266Z,8.50
2019-04-10T02:49:12.292Z,8.34
2019-04-10T02:51:43.148Z,8.21
2019-04-10T02:54:13.764Z,8.13
2019-04-10T02:56:45.296Z,7.97
2019-04-10T02:59:15.481Z,7.95
2019-04-10T03:01:44.650Z,7.98
2019-04-10T03:04:14.050Z,7.82
2019-04-10T03:06:45.085Z,7.80
2019-04-10T03:09:30.519Z,7.74
2019-04-10T03:11:45.832Z,7.70
2019-04-10T03:14:16.759Z,7.69
2019-04-10T03:16:45.978Z,7.58
2019-04-10T03:19:15.020Z,7.48
2019-04-10T03:21:44.979Z,7.46
2019-04-10T03:24:14.401Z,7.52
2019-04-10T03:26:43.416Z,7.61
2019-04-10T03:29:13.536Z,7.72
2019-04-10T03:31:42.847Z,7.61
2019-04-10T03:34:22.334Z,7.62
2019-04-10T03:36:51.671Z,7.73
2019-04-10T03:39:21.625Z,7.59
2019-04-10T03:41:51.096Z,7.42
2019-04-10T03:44:20.732Z,7.47
2019-04-10T03:46:51.186Z,7.23
2019-04-10T03:49:22.095Z,7.25
2019-04-10T03:51:52.563Z,7.36
2019-04-10T03:54:22.825Z,7.41
2019-04-10T03:56:52.039Z,7.29
2019-04-10T03:59:22.277Z,7.23
2019-04-10T04:01:53.366Z,7.20
2019-04-10T04:04:23.728Z,7.22
2019-04-10T04:06:52.869Z,7.29
2019-04-10T04:09:22.041Z,7.44
2019-04-10T04:11:51.068Z,7.28
2019-04-10T04:14:20.133Z,7.32
2019-04-10T04:16:49.780Z,7.24
2019-04-10T04:19:18.813Z,7.25
2019-04-10T04:21:48.175Z,7.19
2019-04-10T04:24:17.866Z,7.14
2019-04-10T04:26:48.604Z,6.98
2019-04-10T04:29:18.486Z,6.93
2019-04-10T04:31:48.467Z,6.88
2019-04-10T04:34:18.642Z,6.75
2019-04-10T04:36:49.175Z,6.69
2019-04-10T04:39:24.954Z,6.66
2019-04-10T04:41:50.186Z,6.73
2019-04-10T04:44:20.284Z,6.70
2019-04-10T04:46:50.485Z,6.68
2019-04-10T04:49:20.537Z,6.72
2019-04-10T04:51:50.587Z,6.69
2019-04-10T04:54:19.824Z,6.62
2019-04-10T04:56:49.180Z,6.54
2019-04-10T04:59:18.441Z,6.41
2019-04-10T05:01:47.550Z,6.38
2019-04-10T05:04:17.298Z,6.42
2019-04-10T05:06:47.983Z,6.29
2019-04-10T05:09:30.117Z,6.16
2019-04-10T05:11:48.935Z,6.12
2019-04-10T05:14:19.473Z,6.08
2019-04-10T05:16:48.638Z,6.20
2019-04-10T05:19:17.660Z,6.36
2019-04-10T05:21:47.646Z,6.29
2019-04-10T05:24:17.838Z,6.31
2019-04-10T05:26:46.986Z,6.25
2019-04-10T05:29:15.992Z,6.36
2019-04-10T05:31:45.022Z,6.40
2019-04-10T05:34:14.414Z,6.45
2019-04-10T05:36:44.117Z,6.51
2019-04-10T05:39:13.247Z,6.41
2019-04-10T05:41:42.366Z,6.46
2019-04-10T05:44:11.613Z,6.48
2019-04-10T05:46:40.976Z,6.48
2019-04-10T05:49:10.777Z,6.34
2019-04-10T05:51:40.140Z,6.28
2019-04-10T05:54:09.146Z,6.38
2019-04-10T05:56:38.474Z,6.21
2019-04-10T05:59:09.809Z,6.36
2019-04-10T06:01:41.157Z,6.28
2019-04-10T06:04:09.322Z,6.45
2019-04-10T06:06:38.810Z,6.30
2019-04-10T06:09:09.137Z,6.32
2019-04-10T06:11:39.422Z,6.30
2019-04-10T06:14:10.055Z,6.41
2019-04-10T06:16:40.558Z,6.46
2019-04-10T06:19:10.032Z,6.48
2019-04-10T06:21:39.741Z,6.56
2019-04-10T06:24:08.933Z,6.53
2019-04-10T06:26:39.515Z,6.55
2019-04-10T06:29:08.675Z,6.64
2019-04-10T06:31:39.034Z,6.64
2019-04-10T06:34:08.886Z,6.75
2019-04-10T06:36:39.650Z,6.82
2019-04-10T06:39:08.919Z,6.92
2019-04-10T06:41:39.049Z,7.08
2019-04-10T06:44:08.193Z,7.09
2019-04-10T06:46:38.870Z,7.16
2019-04-10T06:49:09.240Z,7.20
2019-04-10T06:51:38.440Z,7.20
2019-04-10T06:54:11.021Z,7.27
2019-04-10T06:56:38.389Z,7.43
2019-04-10T06:59:08.737Z,7.28
2019-04-10T07:01:46.015Z,7.27
2019-04-10T07:04:09.943Z,7.47
2019-04-10T07:06:52.824Z,7.51
2019-04-10T07:09:13.691Z,7.43
2019-04-10T07:11:42.982Z,7.48
2019-04-10T07:14:14.338Z,7.44
2019-04-10T07:16:44.318Z,7.59
2019-04-10T07:19:13.684Z,7.44
2019-04-10T07:21:42.793Z,7.49
2019-04-10T07:24:13.702Z,7.66
2019-04-10T07:26:45.157Z,7.69
2019-04-10T07:29:19.727Z,7.69
2019-04-10T07:31:44.967Z,8.03
2019-04-10T07:34:15.115Z,8.17
2019-04-10T07:36:45.495Z,8.33
2019-04-10T07:39:15.179Z,8.61
2019-04-10T07:41:45.237Z,8.59
2019-04-10T07:44:14.721Z,8.80
2019-04-10T07:46:44.647Z,8.79
2019-04-10T07:49:13.658Z,8.77
2019-04-10T07:51:42.760Z,8.93
2019-04-10T07:54:17.892Z,9.14
2019-04-10T07:56:43.809Z,9.40
2019-04-10T07:59:13.052Z,9.47
2019-04-10T08:01:42.156Z,9.54
2019-04-10T08:04:12.507Z,9.36
2019-04-10T08:06:42.423Z,9.55
2019-04-10T08:09:12.521Z,9.84
2019-04-10T08:11:42.512Z,9.86
2019-04-10T08:14:12.761Z,9.88
2019-04-10T08:16:41.799Z,9.96
2019-04-10T08:19:10.868Z,9.85
2019-04-10T08:21:40.309Z,9.57
2019-04-10T08:24:09.501Z,9.50
2019-04-10T08:26:38.909Z,9.78
2019-04-10T08:29:07.956Z,9.96
2019-04-10T08:31:37.374Z,10.24
2019-04-10T08:34:06.694Z,10.45
2019-04-10T08:36:35.754Z,10.23
2019-04-10T08:39:06.868Z,10.18
2019-04-10T08:41:37.248Z,10.32
2019-04-10T08:44:06.611Z,10.54
2019-04-10T08:46:35.955Z,10.83
2019-04-10T08:49:05.729Z,11.13
2019-04-10T08:51:35.320Z,11.26
2019-04-10T08:54:04.767Z,11.56
2019-04-10T08:56:33.879Z,12.62
2019-04-10T08:59:03.450Z,13.93
2019-04-10T09:01:35.508Z,15.21
2019-04-10T09:04:05.723Z,16.28
2019-04-10T09:06:35.608Z,16.80
2019-04-10T09:09:07.722Z,17.75
2019-04-10T09:11:37.601Z,17.21
2019-04-10T09:14:06.918Z,17.85
2019-04-10T09:16:36.423Z,18.09
2019-04-10T09:19:05.967Z,18.05
2019-04-10T09:21:35.876Z,17.91
2019-04-10T09:24:06.067Z,18.34
2019-04-10T09:26:36.167Z,17.73
2019-04-10T09:29:06.629Z,18.43
2019-04-10T09:31:36.134Z,18.21
2019-04-10T09:34:06.275Z,18.72
2019-04-10T09:36:37.532Z,19.33
2019-04-10T09:39:10.263Z,19.75
2019-04-10T09:41:40.101Z,20.04
2019-04-10T09:44:10.309Z,20.08
2019-04-10T09:46:39.495Z,19.16
2019-04-10T09:49:08.854Z,19.88
2019-04-10T09:51:38.399Z,19.38
2019-04-10T09:54:07.861Z,18.98
2019-04-10T09:56:36.952Z,19.20
2019-04-10T09:59:07.361Z,18.72
2019-04-10T10:01:36.615Z,18.55
2019-04-10T10:04:06.714Z,18.60
2019-04-10T10:06:37.907Z,20.25
2019-04-10T10:09:08.461Z,20.97
2019-04-10T10:11:38.586Z,19.70
2019-04-10T10:14:07.856Z,19.51
2019-04-10T10:16:36.960Z,19.91
2019-04-10T10:19:06.119Z,20.77
2019-04-10T10:21:36.599Z,20.92
2019-04-10T10:24:06.569Z,19.92
2019-04-10T10:26:36.475Z,20.51
2019-04-10T10:29:06.007Z,20.62
2019-04-10T10:31:36.050Z,20.79
2019-04-10T10:34:06.446Z,20.84
2019-04-10T10:36:41.129Z,20.45
2019-04-10T10:39:15.712Z,19.55
2019-04-10T10:41:45.285Z,19.31
2019-04-10T10:44:15.129Z,18.39
2019-04-10T10:46:44.629Z,18.05
2019-04-10T10:49:13.811Z,18.45
2019-04-10T10:51:42.953Z,18.35
2019-04-10T10:54:12.609Z,18.57
2019-04-10T10:56:42.588Z,18.45
2019-04-10T10:59:11.991Z,17.92
2019-04-10T11:01:42.138Z,17.21
2019-04-10T11:04:11.429Z,17.68
2019-04-10T11:06:51.644Z,18.80
2019-04-10T11:09:15.636Z,19.84
2019-04-10T11:11:45.466Z,19.97
2019-04-10T11:14:15.048Z,19.90
2019-04-10T11:16:45.508Z,20.12
2019-04-10T11:19:15.362Z,19.92
2019-04-10T11:21:45.165Z,19.20
2019-04-10T11:24:15.026Z,20.47
2019-04-10T11:26:44.192Z,20.50
2019-04-10T11:29:14.303Z,21.24
2019-04-10T11:31:45.734Z,21.35
2019-04-10T11:34:16.427Z,21.36
2019-04-10T11:36:45.803Z,22.20
2019-04-10T11:39:22.690Z,21.77
2019-04-10T11:41:48.632Z,21.73
2019-04-10T11:44:19.960Z,21.99
2019-04-10T11:46:49.275Z,21.55
2019-04-10T11:49:20.157Z,21.63
2019-04-10T11:51:52.715Z,21.41
2019-04-10T11:54:25.026Z,21.96
2019-04-10T11:56:53.360Z,22.33
2019-04-10T11:59:24.192Z,21.89
2019-04-10T12:01:58.960Z,22.33
2019-04-10T12:04:25.624Z,22.57
2019-04-10T12:06:57.256Z,23.58
2019-04-10T12:11:57.296Z,22.70
2019-04-10T12:14:26.413Z,23.52
2019-04-10T12:16:55.810Z,24.02
2019-04-10T12:19:25.277Z,23.00
2019-04-10T12:21:54.483Z,22.96
2019-04-10T12:24:23.924Z,23.28
2019-04-10T12:26:52.997Z,23.39
2019-04-10T12:29:22.616Z,23.61
2019-04-10T12:31:52.320Z,23.11
2019-04-10T12:34:22.444Z,22.07
2019-04-10T12:36:53.143Z,22.01
2019-04-10T12:39:22.739Z,22.24
2019-04-10T12:41:52.025Z,22.76
2019-04-10T12:44:21.410Z,22.14
2019-04-10T12:46:51.182Z,22.77
2019-04-10T12:49:20.558Z,21.95
2019-04-10T12:51:50.038Z,21.65
2019-04-10T12:54:21.600Z,22.06
2019-04-10T12:56:50.702Z,22.02
2019-04-10T12:59:19.767Z,22.08
2019-04-10T13:01:49.112Z,22.31
2019-04-10T13:04:18.189Z,22.47
2019-04-10T13:06:49.238Z,23.42
2019-04-10T13:09:18.442Z,23.05
2019-04-10T13:11:47.469Z,22.59
2019-04-10T13:14:16.904Z,23.22
2019-04-10T13:16:47.918Z,22.97
2019-04-10T13:19:17.046Z,22.96
2019-04-10T13:21:46.656Z,22.37
2019-04-10T13:24:15.842Z,21.65
2019-04-10T13:26:45.874Z,21.82
2019-04-10T13:29:16.189Z,21.30
2019-04-10T13:31:46.730Z,21.70
2019-04-10T13:34:15.847Z,21.80
2019-04-10T13:36:46.054Z,21.63
2019-04-10T13:39:17.768Z,21.88
2019-04-10T13:41:46.294Z,21.69
2019-04-10T13:44:16.287Z,21.15
2019-04-10T13:46:45.535Z,21.91
2019-04-10T13:49:14.667Z,22.30
2019-04-10T13:51:44.040Z,22.01
2019-04-10T13:54:15.028Z,20.73
2019-04-10T13:56:44.149Z,20.93
2019-04-10T13:59:13.995Z,21.38
2019-04-10T14:01:44.495Z,21.36
2019-04-10T14:04:14.578Z,21.71
2019-04-10T14:06:44.149Z,21.22
2019-04-10T14:09:30.130Z,21.20
2019-04-10T14:11:49.657Z,21.33
2019-04-10T14:14:18.690Z,21.00
2019-04-10T14:16:48.881Z,20.36
2019-04-10T14:19:18.210Z,20.23
2019-04-10T14:21:49.182Z,20.13
2019-04-10T14:24:19.893Z,20.52
2019-04-10T14:27:08.119Z,20.55
2019-04-10T14:29:37.296Z,20.55
2019-04-10T14:32:09.865Z,19.78
2019-04-10T14:34:38.900Z,19.60
2019-04-10T14:37:11.990Z,19.72
2019-04-10T14:39:42.359Z,19.51
2019-04-10T14:42:11.604Z,19.31
2019-04-10T14:44:41.080Z,18.96
2019-04-10T14:47:10.922Z,18.96
2019-04-10T14:49:41.412Z,19.06
2019-04-10T14:52:10.748Z,18.83
2019-04-10T14:54:40.141Z,19.04
2019-04-10T14:57:09.216Z,19.00
2019-04-10T14:59:38.267Z,18.56
2019-04-10T15:02:10.565Z,18.48
2019-04-10T15:04:39.752Z,18.36
2019-04-10T15:07:10.073Z,18.14
2019-04-10T15:09:39.495Z,18.45
2019-04-10T15:12:09.975Z,18.64
2019-04-10T15:14:39.590Z,18.66
2019-04-10T15:17:09.542Z,18.65
2019-04-10T15:19:38.903Z,18.94
2019-04-10T15:22:09.446Z,19.24
2019-04-10T15:24:39.641Z,18.74
2019-04-10T15:27:08.975Z,18.64
2019-04-10T15:29:38.656Z,18.30
2019-04-10T15:32:08.446Z,17.94
2019-04-10T15:34:37.687Z,17.70
2019-04-10T15:37:06.874Z,18.24
2019-04-10T15:39:39.151Z,18.47
2019-04-10T15:42:07.919Z,18.78
2019-04-10T15:44:37.054Z,18.78
2019-04-10T15:47:16.050Z,18.82
2019-04-10T15:49:38.750Z,18.82
2019-04-10T15:52:07.900Z,19.22
2019-04-10T15:54:36.887Z,19.37
2019-04-10T15:57:06.849Z,19.30
2019-04-10T15:59:36.572Z,19.12
2019-04-10T16:02:05.799Z,18.58
2019-04-10T16:04:35.863Z,19.14
2019-04-10T16:07:06.142Z,18.91
2019-04-10T16:09:45.513Z,18.35
2019-04-10T16:12:14.613Z,17.77
2019-04-10T16:14:44.415Z,17.75
2019-04-10T16:17:31.388Z,17.61
2019-04-10T16:20:13.690Z,17.34
2019-04-10T16:23:10.510Z,17.08
2019-04-10T16:25:43.254Z,17.51
2019-04-10T16:28:12.731Z,17.23
2019-04-10T16:30:41.750Z,17.45
2019-04-10T16:33:11.195Z,16.87
2019-04-10T16:35:40.477Z,16.90
2019-04-10T16:38:09.924Z,16.94
2019-04-10T16:40:40.416Z,16.87
2019-04-10T16:43:09.704Z,16.94
2019-04-10T16:45:40.528Z,16.90
2019-04-10T16:48:10.650Z,16.73
2019-04-10T16:50:39.786Z,16.65
2019-04-10T16:53:09.770Z,17.13
2019-04-10T16:55:39.074Z,17.09
2019-04-10T16:58:09.515Z,16.56
2019-04-10T17:00:39.695Z,16.62
2019-04-10T17:03:09.685Z,16.44
2019-04-10T17:05:39.768Z,16.28
2019-04-10T17:08:09.766Z,16.24
2019-04-10T17:10:39.055Z,15.80
2019-04-10T17:13:08.977Z,16.06
2019-04-10T17:15:38.502Z,16.04
2019-04-10T17:18:08.712Z,16.02
2019-04-10T17:20:38.361Z,15.89
2019-04-10T17:23:08.155Z,16.08
2019-04-10T17:25:38.147Z,15.98
2019-04-10T17:28:08.290Z,15.77
2019-04-10T17:30:38.014Z,15.64
2019-04-10T17:33:08.980Z,15.91
2019-04-10T17:35:39.900Z,15.31
2019-04-10T17:38:10.163Z,15.34
2019-04-10T17:40:47.773Z,15.35
2019-04-10T17:43:10.679Z,15.17
2019-04-10T17:45:40.712Z,15.31
2019-04-10T17:48:09.990Z,15.10
2019-04-10T17:50:39.515Z,15.01
2019-04-10T17:53:09.233Z,14.56
2019-04-10T17:55:39.861Z,14.88
2019-04-10T17:58:09.607Z,14.56
2019-04-10T18:00:43.045Z,14.64
2019-04-10T18:03:14.080Z,14.57
2019-04-10T18:05:44.679Z,14.43
2019-04-10T18:08:14.354Z,14.22
2019-04-10T18:10:49.419Z,14.28
2019-04-10T18:13:14.428Z,13.78
2019-04-10T18:15:44.205Z,13.77
2019-04-10T18:18:13.634Z,13.85
2019-04-10T18:20:42.770Z,13.79
2019-04-10T18:23:13.341Z,13.62
2019-04-10T18:25:42.629Z,13.71
2019-04-10T18:28:12.110Z,13.17
2019-04-10T18:30:41.606Z,13.05
2019-04-10T18:33:12.074Z,12.75
2019-04-10T18:35:41.082Z,12.78
2019-04-10T18:38:11.211Z,12.79
2019-04-10T18:40:52.231Z,12.57
2019-04-10T18:43:11.892Z,12.30
2019-04-10T18:45:53.923Z,12.11
2019-04-10T18:48:12.485Z,12.24
2019-04-10T18:50:41.625Z,12.20
2019-04-10T18:53:11.186Z,11.90
2019-04-10T18:55:40.641Z,12.03
2019-04-10T18:58:15.729Z,11.79
2019-04-10T19:01:03.020Z,11.75
2019-04-10T19:03:50.135Z,11.58
2019-04-10T19:06:18.432Z,11.78
2019-04-10T19:09:00.609Z,11.68
2019-04-10T19:11:22.897Z,11.53
2019-04-10T19:13:49.470Z,11.62
2019-04-10T19:16:19.651Z,11.83
2019-04-10T19:18:50.066Z,11.76
2019-04-10T19:21:21.718Z,11.86
2019-04-10T19:23:51.032Z,11.76
2019-04-10T19:26:23.067Z,11.14
2019-04-10T19:28:52.914Z,11.14
2019-04-10T19:31:24.324Z,11.18
2019-04-10T19:33:53.948Z,11.34
2019-04-10T19:36:23.807Z,11.25
2019-04-10T19:38:53.877Z,11.08
2019-04-10T19:41:30.762Z,10.79
2019-04-10T19:43:54.847Z,10.76
2019-04-10T19:46:23.976Z,10.85
2019-04-10T19:48:53.533Z,10.85
2019-04-10T19:51:23.744Z,10.92
2019-04-10T19:53:53.380Z,10.92
2019-04-10T19:56:22.797Z,10.50
2019-04-10T19:58:52.395Z,10.50
2019-04-10T20:01:24.127Z,10.30
2019-04-10T20:03:52.226Z,10.30
2019-04-10T20:06:23.561Z,10.27
2019-04-10T20:08:52.492Z,10.50
2019-04-10T20:11:31.846Z,10.59
2019-04-10T20:13:52.710Z,10.51
2019-04-10T20:16:22.802Z,10.40
2019-04-10T20:18:52.908Z,10.56
2019-04-10T20:21:22.038Z,10.43
2019-04-10T20:23:52.330Z,10.28
2019-04-10T20:26:21.549Z,9.90
2019-04-10T20:28:51.758Z,10.02
2019-04-10T20:31:25.898Z,9.85
2019-04-10T20:33:55.027Z,9.76
2019-04-10T20:36:24.768Z,9.43
2019-04-10T20:38:54.145Z,9.43
2019-04-10T20:41:24.566Z,9.57
2019-04-10T20:43:55.370Z,9.43
2019-04-10T20:46:24.582Z,9.27
2019-04-10T20:48:55.042Z,9.30
2019-04-10T20:51:24.969Z,9.30
2019-04-10T20:53:56.042Z,9.32
2019-04-10T20:56:26.335Z,9.32
2019-04-10T20:58:55.606Z,9.35
2019-04-10T21:01:24.722Z,8.98
2019-04-10T21:03:54.120Z,9.09
2019-04-10T21:06:23.441Z,8.92
2019-04-10T21:08:54.413Z,8.95
2019-04-10T21:11:24.728Z,8.90
2019-04-10T21:13:54.513Z,8.64
2019-04-10T21:16:25.206Z,8.60
2019-04-10T21:18:54.335Z,8.49
2019-04-10T21:21:24.332Z,8.76
2019-04-10T21:23:54.282Z,8.69
2019-04-10T21:26:24.015Z,8.64
2019-04-10T21:28:53.738Z,8.63
2019-04-10T21:31:52.328Z,8.38
2019-04-10T21:34:28.415Z,8.26
2019-04-10T21:36:57.695Z,8.21
2019-04-10T21:39:27.752Z,8.13
2019-04-10T21:42:09.282Z,8.39
2019-04-10T21:44:28.938Z,8.37
2019-04-10T21:46:59.204Z,8.44
2019-04-10T21:49:28.432Z,8.14
2019-04-10T21:51:57.894Z,8.44
2019-04-10T21:54:27.384Z,8.19
2019-04-10T21:56:57.681Z,8.34
2019-04-10T21:59:26.904Z,8.08
2019-04-10T22:01:57.032Z,8.04
2019-04-10T22:04:27.281Z,8.04
2019-04-10T22:07:14.015Z,8.03
2019-04-10T22:10:12.067Z,7.71
2019-04-10T22:12:46.626Z,7.64
2019-04-10T22:15:24.823Z,7.59
2019-04-10T22:17:53.909Z,7.43
2019-04-10T22:20:23.544Z,7.53
2019-04-10T22:22:53.465Z,7.44
2019-04-10T22:25:23.565Z,7.32
2019-04-10T22:27:54.171Z,7.28
2019-04-10T22:30:23.422Z,7.01
2019-04-10T22:32:53.448Z,7.02
2019-04-10T22:35:23.504Z,6.81
2019-04-10T22:37:53.103Z,6.86
2019-04-10T22:40:22.154Z,6.76
2019-04-10T22:42:51.392Z,6.68
2019-04-10T22:45:29.055Z,6.80
2019-04-10T22:47:59.015Z,6.88
2019-04-10T22:50:29.028Z,6.73
2019-04-10T22:52:59.256Z,6.85
2019-04-10T22:55:28.949Z,6.81
2019-04-10T22:57:57.980Z,6.76
2019-04-10T23:00:32.410Z,6.54
2019-04-10T23:03:03.043Z,6.49
2019-04-10T23:05:32.799Z,6.55
2019-04-10T23:08:03.174Z,6.52
2019-04-10T23:10:33.244Z,6.45
2019-04-10T23:13:05.385Z,6.39
2019-04-10T23:15:33.591Z,6.30
2019-04-10T23:18:03.373Z,6.18
2019-04-10T23:20:34.065Z,6.26
2019-04-10T23:23:03.190Z,6.10
2019-04-10T23:25:32.189Z,6.10
2019-04-10T23:28:01.382Z,5.97
2019-04-10T23:30:31.039Z,5.93
2019-04-10T23:33:00.053Z,5.96
2019-04-10T23:35:29.613Z,6.01
2019-04-10T23:37:59.470Z,5.91
2019-04-10T23:40:29.301Z,5.86
2019-04-10T23:43:08.100Z,5.80
2019-04-10T23:45:29.440Z,5.81
2019-04-10T23:48:00.261Z,5.79
2019-04-10T23:50:30.315Z,5.81
2019-04-10T23:53:00.309Z,5.84
2019-04-10T23:55:30.203Z,5.73
2019-04-10T23:58:00.018Z,5.68
